Airfield :
LOGIN :

Register | Disclaimer

   EN    FR    IT 

 










Legend :    VFR   Marginal VFR   IFR   Intensive IFR   Very Intensive IFR
Visi :
Ceiling :
>= 8 km
>= 3000ft
5 to 8 km
1000 to 3000 ft
1500m to 5 km
500 to 1000 ft
800 to 1500m
200 to 500 ft
< 800m
< 200 ft
Symbols :   Thunderstorms  Fog  Heavy snow  Heavy precipitations  Wind > 20 kt
SIGMETs :     Misc.  Thunderstorms  Icing  Turbulence  Mountain Waves  Volcanic Ashes







- Airport Elevation : 26 ft
- IATA code : GLA
- Download approach charts


EGPF - Glasgow

CURRENT METAR :
  • 241320Z AUTO 06005KT 4800 -DZ BKN012/// OVC020/// //////TCU 13/13 Q1017

EXPIRED METARs :
  • 241250Z AUTO 04007KT 9000 -RA BKN015 OVC025 13/13 Q1017
  • 241220Z AUTO 06006KT 9999 -RA SCT013/// OVC025/// //////TCU 13/13 Q1017
  • 241150Z 05006KT 9999 -RA SCT014TCU BKN025 13/12 Q1016
  • 241120Z AUTO 07007KT 7000 -RA BKN010/// //////TCU 13/12 Q1016
  • 241050Z AUTO 07005KT 6000 -RA BKN009/// OVC012/// //////TCU 13/12 Q1016 RERA

TAF AMD TAF EGPF
Valid from the 24 at 12:00 until the 25 at 12:00 UTC


241237Z 2412/2512 05005KT 9999 SCT012
TEMPO 2412/2503 6000 RA BKN012
PROB40
TEMPO 2412/2503 4000 DZ BKN005
TEMPO 2503/2512 2000 RADZ BR BKN002
ATIS : +44 141 887 7449
No reported NOTAMs for that airfield.



MET'MAP, your aeronautical weather chart ! - Copyright ORBIFLY December 2007 - Disclaimer

ORBIFLY MET'MAP TEAM :

Programming & Development : Alexandra Zaïnal
Concept & Development : Baudouin d'Aumeries
Co-Development & Prog : Marc-Olivier Méhu
Technical & hardware support : Manuel Goepfert

Contact : metmap@orbifly.com




SOURCES & CREDITS :

   NOAA